sensor_id;sensor_type;location;lat;lon;timestamp;P1;durP1;ratioP1;P2;durP2;ratioP2
31734;SDS011;18313;48.518;9.124;2022-07-06T00:01:02;2.97;;;1.50;;
31734;SDS011;18313;48.518;9.124;2022-07-06T00:03:29;5.00;;;1.70;;
31734;SDS011;18313;48.518;9.124;2022-07-06T00:05:57;2.65;;;1.40;;
31734;SDS011;18313;48.518;9.124;2022-07-06T00:08:24;1.85;;;1.35;;
31734;SDS011;18313;48.518;9.124;2022-07-06T00:10:51;3.03;;;1.50;;
31734;SDS011;18313;48.518;9.124;2022-07-06T00:13:18;5.97;;;2.00;;
31734;SDS011;18313;48.518;9.124;2022-07-06T00:15:45;6.28;;;1.58;;
31734;SDS011;18313;48.518;9.124;2022-07-06T00:18:12;4.60;;;1.77;;
31734;SDS011;18313;48.518;9.124;2022-07-06T00:20:39;3.83;;;1.50;;
31734;SDS011;18313;48.518;9.124;2022-07-06T00:23:06;4.88;;;1.67;;
31734;SDS011;18313;48.518;9.124;2022-07-06T00:25:33;5.60;;;1.83;;
31734;SDS011;18313;48.518;9.124;2022-07-06T00:28:00;3.72;;;1.70;;
31734;SDS011;18313;48.518;9.124;2022-07-06T00:30:27;2.95;;;1.70;;
31734;SDS011;18313;48.518;9.124;2022-07-06T00:32:55;2.53;;;1.70;;
31734;SDS011;18313;48.518;9.124;2022-07-06T00:35:22;3.35;;;1.80;;
31734;SDS011;18313;48.518;9.124;2022-07-06T00:37:49;5.18;;;1.65;;
31734;SDS011;18313;48.518;9.124;2022-07-06T00:40:16;5.47;;;1.70;;
31734;SDS011;18313;48.518;9.124;2022-07-06T00:42:44;5.20;;;1.85;;
31734;SDS011;18313;48.518;9.124;2022-07-06T00:45:13;2.58;;;1.50;;
31734;SDS011;18313;48.518;9.124;2022-07-06T00:47:41;3.25;;;1.60;;
31734;SDS011;18313;48.518;9.124;2022-07-06T00:50:10;2.55;;;1.33;;
31734;SDS011;18313;48.518;9.124;2022-07-06T00:52:53;3.55;;;1.80;;
31734;SDS011;18313;48.518;9.124;2022-07-06T00:55:33;3.05;;;1.70;;
31734;SDS011;18313;48.518;9.124;2022-07-06T00:58:03;5.97;;;1.75;;
31734;SDS011;18313;48.518;9.124;2022-07-06T01:00:30;3.03;;;1.90;;
31734;SDS011;18313;48.518;9.124;2022-07-06T01:02:58;4.63;;;1.98;;
31734;SDS011;18313;48.518;9.124;2022-07-06T01:05:26;4.00;;;1.80;;
31734;SDS011;18313;48.518;9.124;2022-07-06T01:07:53;6.03;;;1.70;;
31734;SDS011;18313;48.518;9.124;2022-07-06T01:10:20;3.63;;;1.75;;
31734;SDS011;18313;48.518;9.124;2022-07-06T01:12:49;3.30;;;1.55;;
31734;SDS011;18313;48.518;9.124;2022-07-06T01:15:23;10.13;;;1.90;;
31734;SDS011;18313;48.518;9.124;2022-07-06T01:17:51;2.25;;;1.63;;
31734;SDS011;18313;48.518;9.124;2022-07-06T01:20:23;6.35;;;1.90;;
31734;SDS011;18313;48.518;9.124;2022-07-06T01:22:52;4.13;;;2.17;;
31734;SDS011;18313;48.518;9.124;2022-07-06T01:25:20;2.85;;;1.60;;
31734;SDS011;18313;48.518;9.124;2022-07-06T01:27:47;3.25;;;1.80;;
31734;SDS011;18313;48.518;9.124;2022-07-06T01:30:15;4.22;;;1.70;;
31734;SDS011;18313;48.518;9.124;2022-07-06T01:32:44;6.10;;;1.92;;
31734;SDS011;18313;48.518;9.124;2022-07-06T01:35:12;4.05;;;1.75;;
31734;SDS011;18313;48.518;9.124;2022-07-06T01:37:41;3.33;;;1.70;;
31734;SDS011;18313;48.518;9.124;2022-07-06T01:40:09;3.17;;;1.80;;
31734;SDS011;18313;48.518;9.124;2022-07-06T01:42:37;3.35;;;1.70;;
31734;SDS011;18313;48.518;9.124;2022-07-06T01:45:06;4.50;;;1.90;;
31734;SDS011;18313;48.518;9.124;2022-07-06T01:47:34;5.20;;;1.90;;
31734;SDS011;18313;48.518;9.124;2022-07-06T01:50:03;5.57;;;1.90;;
31734;SDS011;18313;48.518;9.124;2022-07-06T01:52:32;6.50;;;2.10;;
31734;SDS011;18313;48.518;9.124;2022-07-06T01:54:59;3.75;;;1.80;;
31734;SDS011;18313;48.518;9.124;2022-07-06T01:57:26;4.43;;;1.77;;
31734;SDS011;18313;48.518;9.124;2022-07-06T01:59:53;5.50;;;1.98;;
31734;SDS011;18313;48.518;9.124;2022-07-06T02:02:20;3.08;;;1.70;;
31734;SDS011;18313;48.518;9.124;2022-07-06T02:04:47;2.72;;;1.73;;
31734;SDS011;18313;48.518;9.124;2022-07-06T02:07:14;6.18;;;2.08;;
31734;SDS011;18313;48.518;9.124;2022-07-06T02:09:41;3.50;;;1.83;;
31734;SDS011;18313;48.518;9.124;2022-07-06T02:12:09;4.38;;;1.75;;
31734;SDS011;18313;48.518;9.124;2022-07-06T02:14:36;4.82;;;1.73;;
31734;SDS011;18313;48.518;9.124;2022-07-06T02:17:03;4.05;;;2.05;;
31734;SDS011;18313;48.518;9.124;2022-07-06T02:19:30;3.88;;;2.38;;
31734;SDS011;18313;48.518;9.124;2022-07-06T02:21:57;5.15;;;1.98;;
31734;SDS011;18313;48.518;9.124;2022-07-06T02:24:25;3.58;;;1.60;;
31734;SDS011;18313;48.518;9.124;2022-07-06T02:26:52;5.32;;;1.80;;
31734;SDS011;18313;48.518;9.124;2022-07-06T02:29:19;4.28;;;1.90;;
31734;SDS011;18313;48.518;9.124;2022-07-06T02:31:46;3.67;;;1.88;;
31734;SDS011;18313;48.518;9.124;2022-07-06T02:34:13;4.80;;;2.15;;
31734;SDS011;18313;48.518;9.124;2022-07-06T02:36:40;4.13;;;2.30;;
31734;SDS011;18313;48.518;9.124;2022-07-06T02:39:07;3.90;;;2.40;;
31734;SDS011;18313;48.518;9.124;2022-07-06T02:41:34;5.35;;;2.40;;
31734;SDS011;18313;48.518;9.124;2022-07-06T02:44:01;5.20;;;2.15;;
31734;SDS011;18313;48.518;9.124;2022-07-06T02:46:29;3.90;;;2.17;;
31734;SDS011;18313;48.518;9.124;2022-07-06T02:48:56;3.90;;;2.28;;
31734;SDS011;18313;48.518;9.124;2022-07-06T02:51:23;5.07;;;2.15;;
31734;SDS011;18313;48.518;9.124;2022-07-06T02:53:50;6.68;;;2.30;;
31734;SDS011;18313;48.518;9.124;2022-07-06T02:56:17;3.15;;;2.22;;
31734;SDS011;18313;48.518;9.124;2022-07-06T02:58:44;4.25;;;2.08;;
31734;SDS011;18313;48.518;9.124;2022-07-06T03:01:11;3.67;;;2.13;;
31734;SDS011;18313;48.518;9.124;2022-07-06T03:03:39;3.85;;;2.17;;
31734;SDS011;18313;48.518;9.124;2022-07-06T03:06:07;4.80;;;2.38;;
31734;SDS011;18313;48.518;9.124;2022-07-06T03:08:34;4.32;;;2.58;;
31734;SDS011;18313;48.518;9.124;2022-07-06T03:11:01;7.50;;;2.22;;
31734;SDS011;18313;48.518;9.124;2022-07-06T03:13:28;5.35;;;2.30;;
31734;SDS011;18313;48.518;9.124;2022-07-06T03:15:55;3.90;;;2.20;;
31734;SDS011;18313;48.518;9.124;2022-07-06T03:18:22;3.40;;;2.22;;
31734;SDS011;18313;48.518;9.124;2022-07-06T03:20:50;3.70;;;2.15;;
31734;SDS011;18313;48.518;9.124;2022-07-06T03:23:17;5.10;;;2.10;;
31734;SDS011;18313;48.518;9.124;2022-07-06T03:25:44;4.68;;;2.30;;
31734;SDS011;18313;48.518;9.124;2022-07-06T03:28:11;2.67;;;2.17;;
31734;SDS011;18313;48.518;9.124;2022-07-06T03:30:39;3.95;;;2.20;;
31734;SDS011;18313;48.518;9.124;2022-07-06T03:33:07;3.92;;;2.30;;
31734;SDS011;18313;48.518;9.124;2022-07-06T03:35:34;4.93;;;2.40;;
31734;SDS011;18313;48.518;9.124;2022-07-06T03:38:01;4.43;;;2.03;;
31734;SDS011;18313;48.518;9.124;2022-07-06T03:40:29;6.03;;;2.47;;
31734;SDS011;18313;48.518;9.124;2022-07-06T03:42:56;3.88;;;2.35;;
31734;SDS011;18313;48.518;9.124;2022-07-06T03:45:23;6.07;;;2.50;;
31734;SDS011;18313;48.518;9.124;2022-07-06T03:47:51;6.03;;;2.53;;
31734;SDS011;18313;48.518;9.124;2022-07-06T03:50:18;6.80;;;2.60;;
31734;SDS011;18313;48.518;9.124;2022-07-06T03:52:45;5.93;;;2.70;;
31734;SDS011;18313;48.518;9.124;2022-07-06T03:55:12;5.07;;;2.30;;
31734;SDS011;18313;48.518;9.124;2022-07-06T03:57:39;5.00;;;2.47;;
31734;SDS011;18313;48.518;9.124;2022-07-06T04:00:07;5.80;;;2.63;;
31734;SDS011;18313;48.518;9.124;2022-07-06T04:02:35;4.32;;;2.50;;
31734;SDS011;18313;48.518;9.124;2022-07-06T04:05:02;3.58;;;2.00;;
31734;SDS011;18313;48.518;9.124;2022-07-06T04:07:30;4.70;;;2.50;;
31734;SDS011;18313;48.518;9.124;2022-07-06T04:09:57;5.15;;;2.40;;
31734;SDS011;18313;48.518;9.124;2022-07-06T04:12:24;4.43;;;2.53;;
31734;SDS011;18313;48.518;9.124;2022-07-06T04:14:51;5.05;;;2.50;;
31734;SDS011;18313;48.518;9.124;2022-07-06T04:17:18;5.97;;;2.38;;
31734;SDS011;18313;48.518;9.124;2022-07-06T04:20:04;4.30;;;2.70;;
31734;SDS011;18313;48.518;9.124;2022-07-06T04:22:31;3.25;;;2.30;;
31734;SDS011;18313;48.518;9.124;2022-07-06T04:24:58;3.72;;;2.58;;
31734;SDS011;18313;48.518;9.124;2022-07-06T04:27:25;4.53;;;2.47;;
31734;SDS011;18313;48.518;9.124;2022-07-06T04:29:53;5.47;;;2.40;;
31734;SDS011;18313;48.518;9.124;2022-07-06T04:32:20;4.90;;;2.33;;
31734;SDS011;18313;48.518;9.124;2022-07-06T04:34:51;4.38;;;2.30;;
31734;SDS011;18313;48.518;9.124;2022-07-06T04:37:18;5.05;;;2.30;;
31734;SDS011;18313;48.518;9.124;2022-07-06T04:39:45;4.07;;;2.55;;
31734;SDS011;18313;48.518;9.124;2022-07-06T04:42:11;7.15;;;2.55;;
31734;SDS011;18313;48.518;9.124;2022-07-06T04:44:39;5.55;;;2.60;;
31734;SDS011;18313;48.518;9.124;2022-07-06T04:47:06;5.38;;;2.40;;
31734;SDS011;18313;48.518;9.124;2022-07-06T04:49:33;4.68;;;2.55;;
31734;SDS011;18313;48.518;9.124;2022-07-06T04:52:00;3.72;;;2.28;;
31734;SDS011;18313;48.518;9.124;2022-07-06T04:54:27;5.07;;;2.15;;
31734;SDS011;18313;48.518;9.124;2022-07-06T04:56:54;3.55;;;2.10;;
31734;SDS011;18313;48.518;9.124;2022-07-06T04:59:21;4.15;;;2.17;;
31734;SDS011;18313;48.518;9.124;2022-07-06T05:01:48;6.85;;;2.40;;
31734;SDS011;18313;48.518;9.124;2022-07-06T05:04:16;6.00;;;2.10;;
31734;SDS011;18313;48.518;9.124;2022-07-06T05:06:46;6.43;;;2.30;;
31734;SDS011;18313;48.518;9.124;2022-07-06T05:09:13;3.92;;;2.00;;
31734;SDS011;18313;48.518;9.124;2022-07-06T05:11:40;5.40;;;1.98;;
31734;SDS011;18313;48.518;9.124;2022-07-06T05:14:08;3.65;;;2.00;;
31734;SDS011;18313;48.518;9.124;2022-07-06T05:16:36;4.43;;;1.80;;
31734;SDS011;18313;48.518;9.124;2022-07-06T05:19:03;3.83;;;1.95;;
31734;SDS011;18313;48.518;9.124;2022-07-06T05:21:30;5.10;;;1.95;;
31734;SDS011;18313;48.518;9.124;2022-07-06T05:23:57;5.03;;;2.30;;
31734;SDS011;18313;48.518;9.124;2022-07-06T05:26:24;6.57;;;2.20;;
31734;SDS011;18313;48.518;9.124;2022-07-06T05:28:51;5.07;;;2.20;;
31734;SDS011;18313;48.518;9.124;2022-07-06T05:31:18;4.93;;;2.40;;
31734;SDS011;18313;48.518;9.124;2022-07-06T05:33:45;5.82;;;2.40;;
31734;SDS011;18313;48.518;9.124;2022-07-06T05:36:12;4.32;;;2.42;;
31734;SDS011;18313;48.518;9.124;2022-07-06T05:38:39;5.03;;;2.33;;
31734;SDS011;18313;48.518;9.124;2022-07-06T05:41:07;10.05;;;2.80;;
31734;SDS011;18313;48.518;9.124;2022-07-06T05:43:37;6.53;;;2.55;;
31734;SDS011;18313;48.518;9.124;2022-07-06T05:46:04;4.18;;;2.90;;
31734;SDS011;18313;48.518;9.124;2022-07-06T05:48:31;6.05;;;3.10;;
31734;SDS011;18313;48.518;9.124;2022-07-06T05:51:17;6.53;;;3.15;;
31734;SDS011;18313;48.518;9.124;2022-07-06T05:53:44;6.63;;;2.97;;
31734;SDS011;18313;48.518;9.124;2022-07-06T05:56:11;4.85;;;2.88;;
31734;SDS011;18313;48.518;9.124;2022-07-06T05:58:38;6.30;;;3.00;;
31734;SDS011;18313;48.518;9.124;2022-07-06T06:01:05;5.80;;;2.60;;
31734;SDS011;18313;48.518;9.124;2022-07-06T06:03:33;6.18;;;2.70;;
31734;SDS011;18313;48.518;9.124;2022-07-06T06:06:01;7.15;;;2.67;;
31734;SDS011;18313;48.518;9.124;2022-07-06T06:08:28;3.97;;;2.30;;
31734;SDS011;18313;48.518;9.124;2022-07-06T06:10:55;4.28;;;2.42;;
31734;SDS011;18313;48.518;9.124;2022-07-06T06:13:22;5.22;;;2.53;;
31734;SDS011;18313;48.518;9.124;2022-07-06T06:15:49;6.10;;;2.53;;
31734;SDS011;18313;48.518;9.124;2022-07-06T06:18:16;6.05;;;2.58;;
31734;SDS011;18313;48.518;9.124;2022-07-06T06:20:46;5.78;;;2.50;;
31734;SDS011;18313;48.518;9.124;2022-07-06T06:23:13;3.42;;;2.20;;
31734;SDS011;18313;48.518;9.124;2022-07-06T06:25:40;5.35;;;2.70;;
31734;SDS011;18313;48.518;9.124;2022-07-06T06:28:08;7.78;;;2.85;;
31734;SDS011;18313;48.518;9.124;2022-07-06T06:30:36;6.00;;;2.78;;
31734;SDS011;18313;48.518;9.124;2022-07-06T06:33:05;5.28;;;2.40;;
31734;SDS011;18313;48.518;9.124;2022-07-06T06:35:46;8.50;;;2.88;;
31734;SDS011;18313;48.518;9.124;2022-07-06T06:38:14;4.03;;;2.58;;
31734;SDS011;18313;48.518;9.124;2022-07-06T06:40:42;5.82;;;2.53;;
31734;SDS011;18313;48.518;9.124;2022-07-06T06:43:09;4.28;;;2.38;;
31734;SDS011;18313;48.518;9.124;2022-07-06T06:45:36;4.82;;;2.28;;
31734;SDS011;18313;48.518;9.124;2022-07-06T06:48:04;4.88;;;2.33;;
31734;SDS011;18313;48.518;9.124;2022-07-06T06:50:31;3.65;;;2.10;;
31734;SDS011;18313;48.518;9.124;2022-07-06T06:52:58;5.07;;;2.75;;
31734;SDS011;18313;48.518;9.124;2022-07-06T06:55:25;6.85;;;2.38;;
31734;SDS011;18313;48.518;9.124;2022-07-06T06:57:52;5.30;;;2.10;;
31734;SDS011;18313;48.518;9.124;2022-07-06T07:00:19;4.78;;;2.13;;
31734;SDS011;18313;48.518;9.124;2022-07-06T07:02:46;3.55;;;2.10;;
31734;SDS011;18313;48.518;9.124;2022-07-06T07:05:13;7.72;;;2.30;;
31734;SDS011;18313;48.518;9.124;2022-07-06T07:07:40;5.00;;;2.50;;
31734;SDS011;18313;48.518;9.124;2022-07-06T07:10:08;6.72;;;2.38;;
31734;SDS011;18313;48.518;9.124;2022-07-06T07:12:35;6.63;;;2.30;;
31734;SDS011;18313;48.518;9.124;2022-07-06T07:15:09;4.05;;;2.10;;
31734;SDS011;18313;48.518;9.124;2022-07-06T07:17:37;4.40;;;2.50;;
31734;SDS011;18313;48.518;9.124;2022-07-06T07:20:04;7.32;;;2.17;;
31734;SDS011;18313;48.518;9.124;2022-07-06T07:22:32;3.70;;;1.88;;
31734;SDS011;18313;48.518;9.124;2022-07-06T07:24:59;3.88;;;1.80;;
31734;SDS011;18313;48.518;9.124;2022-07-06T07:27:26;4.53;;;2.28;;
31734;SDS011;18313;48.518;9.124;2022-07-06T07:29:53;4.70;;;1.90;;
31734;SDS011;18313;48.518;9.124;2022-07-06T07:32:20;3.63;;;2.10;;
31734;SDS011;18313;48.518;9.124;2022-07-06T07:34:47;4.30;;;2.08;;
31734;SDS011;18313;48.518;9.124;2022-07-06T07:37:14;3.05;;;1.77;;
31734;SDS011;18313;48.518;9.124;2022-07-06T07:39:41;5.65;;;2.05;;
31734;SDS011;18313;48.518;9.124;2022-07-06T07:42:08;4.40;;;2.22;;
31734;SDS011;18313;48.518;9.124;2022-07-06T07:44:43;6.60;;;2.00;;
31734;SDS011;18313;48.518;9.124;2022-07-06T07:47:10;3.58;;;1.55;;
31734;SDS011;18313;48.518;9.124;2022-07-06T07:49:37;5.45;;;2.10;;
31734;SDS011;18313;48.518;9.124;2022-07-06T07:52:04;4.05;;;1.90;;
31734;SDS011;18313;48.518;9.124;2022-07-06T07:54:31;4.75;;;2.00;;
31734;SDS011;18313;48.518;9.124;2022-07-06T07:56:58;3.70;;;1.60;;
31734;SDS011;18313;48.518;9.124;2022-07-06T07:59:25;4.43;;;1.80;;
31734;SDS011;18313;48.518;9.124;2022-07-06T08:01:52;4.95;;;2.10;;
31734;SDS011;18313;48.518;9.124;2022-07-06T08:04:19;4.80;;;2.13;;
31734;SDS011;18313;48.518;9.124;2022-07-06T08:06:46;6.20;;;2.28;;
31734;SDS011;18313;48.518;9.124;2022-07-06T08:09:14;6.38;;;1.95;;
31734;SDS011;18313;48.518;9.124;2022-07-06T08:11:43;4.45;;;1.67;;
31734;SDS011;18313;48.518;9.124;2022-07-06T08:14:11;2.97;;;1.80;;
31734;SDS011;18313;48.518;9.124;2022-07-06T08:16:40;3.70;;;1.95;;
31734;SDS011;18313;48.518;9.124;2022-07-06T08:19:07;4.97;;;1.63;;
31734;SDS011;18313;48.518;9.124;2022-07-06T08:21:36;5.50;;;1.70;;
31734;SDS011;18313;48.518;9.124;2022-07-06T08:24:03;2.97;;;1.80;;
31734;SDS011;18313;48.518;9.124;2022-07-06T08:26:30;6.43;;;1.95;;
31734;SDS011;18313;48.518;9.124;2022-07-06T08:28:57;4.80;;;1.85;;
31734;SDS011;18313;48.518;9.124;2022-07-06T08:31:25;3.58;;;1.80;;
31734;SDS011;18313;48.518;9.124;2022-07-06T08:34:15;4.88;;;1.75;;
31734;SDS011;18313;48.518;9.124;2022-07-06T08:36:42;4.65;;;2.13;;
31734;SDS011;18313;48.518;9.124;2022-07-06T08:39:09;4.93;;;1.83;;
31734;SDS011;18313;48.518;9.124;2022-07-06T08:41:37;5.78;;;1.90;;
31734;SDS011;18313;48.518;9.124;2022-07-06T08:44:07;4.93;;;1.90;;
31734;SDS011;18313;48.518;9.124;2022-07-06T08:46:37;3.97;;;1.77;;
31734;SDS011;18313;48.518;9.124;2022-07-06T08:49:06;3.97;;;1.80;;
31734;SDS011;18313;48.518;9.124;2022-07-06T08:51:37;4.95;;;1.90;;
31734;SDS011;18313;48.518;9.124;2022-07-06T08:54:04;4.32;;;2.00;;
31734;SDS011;18313;48.518;9.124;2022-07-06T08:56:32;4.57;;;1.75;;
31734;SDS011;18313;48.518;9.124;2022-07-06T08:58:59;6.07;;;1.80;;
31734;SDS011;18313;48.518;9.124;2022-07-06T09:01:26;4.57;;;1.50;;
31734;SDS011;18313;48.518;9.124;2022-07-06T09:03:54;2.72;;;1.70;;
31734;SDS011;18313;48.518;9.124;2022-07-06T09:06:26;2.80;;;1.65;;
31734;SDS011;18313;48.518;9.124;2022-07-06T09:08:55;3.55;;;1.92;;
31734;SDS011;18313;48.518;9.124;2022-07-06T09:11:23;4.30;;;1.80;;
31734;SDS011;18313;48.518;9.124;2022-07-06T09:13:54;4.13;;;1.60;;
31734;SDS011;18313;48.518;9.124;2022-07-06T09:16:25;4.70;;;1.83;;
31734;SDS011;18313;48.518;9.124;2022-07-06T09:19:06;7.63;;;2.08;;
31734;SDS011;18313;48.518;9.124;2022-07-06T09:21:34;2.78;;;1.60;;
31734;SDS011;18313;48.518;9.124;2022-07-06T09:24:06;3.00;;;1.75;;
31734;SDS011;18313;48.518;9.124;2022-07-06T09:26:35;3.47;;;1.50;;
31734;SDS011;18313;48.518;9.124;2022-07-06T09:29:02;5.85;;;1.98;;
31734;SDS011;18313;48.518;9.124;2022-07-06T09:31:30;3.42;;;1.70;;
31734;SDS011;18313;48.518;9.124;2022-07-06T09:34:07;5.47;;;1.75;;
31734;SDS011;18313;48.518;9.124;2022-07-06T09:36:38;4.95;;;1.63;;
31734;SDS011;18313;48.518;9.124;2022-07-06T09:39:16;4.40;;;1.70;;
31734;SDS011;18313;48.518;9.124;2022-07-06T09:41:57;5.85;;;1.50;;
31734;SDS011;18313;48.518;9.124;2022-07-06T09:44:26;3.75;;;1.83;;
31734;SDS011;18313;48.518;9.124;2022-07-06T09:47:00;6.93;;;1.70;;
31734;SDS011;18313;48.518;9.124;2022-07-06T09:49:29;4.70;;;1.60;;
31734;SDS011;18313;48.518;9.124;2022-07-06T09:52:01;3.58;;;1.52;;
31734;SDS011;18313;48.518;9.124;2022-07-06T09:54:29;3.30;;;1.45;;
31734;SDS011;18313;48.518;9.124;2022-07-06T09:56:56;3.63;;;1.80;;
31734;SDS011;18313;48.518;9.124;2022-07-06T09:59:26;6.93;;;1.25;;
31734;SDS011;18313;48.518;9.124;2022-07-06T10:01:59;4.30;;;1.38;;
31734;SDS011;18313;48.518;9.124;2022-07-06T10:04:28;5.40;;;1.50;;
31734;SDS011;18313;48.518;9.124;2022-07-06T10:06:56;7.00;;;1.58;;
31734;SDS011;18313;48.518;9.124;2022-07-06T10:09:25;4.13;;;1.55;;
31734;SDS011;18313;48.518;9.124;2022-07-06T10:11:54;4.35;;;1.50;;
31734;SDS011;18313;48.518;9.124;2022-07-06T10:14:24;4.63;;;1.50;;
31734;SDS011;18313;48.518;9.124;2022-07-06T10:17:02;5.32;;;1.40;;
31734;SDS011;18313;48.518;9.124;2022-07-06T10:19:32;5.35;;;1.40;;
31734;SDS011;18313;48.518;9.124;2022-07-06T10:21:59;4.90;;;1.50;;
31734;SDS011;18313;48.518;9.124;2022-07-06T10:24:29;7.70;;;2.00;;
31734;SDS011;18313;48.518;9.124;2022-07-06T10:26:57;4.05;;;1.52;;
31734;SDS011;18313;48.518;9.124;2022-07-06T10:29:24;3.20;;;1.33;;
31734;SDS011;18313;48.518;9.124;2022-07-06T10:31:52;5.20;;;1.70;;
31734;SDS011;18313;48.518;9.124;2022-07-06T10:34:21;3.80;;;1.50;;
31734;SDS011;18313;48.518;9.124;2022-07-06T10:36:49;3.47;;;1.10;;
31734;SDS011;18313;48.518;9.124;2022-07-06T10:39:17;3.25;;;1.50;;
31734;SDS011;18313;48.518;9.124;2022-07-06T10:45:12;2.53;;;1.40;;
31734;SDS011;18313;48.518;9.124;2022-07-06T10:47:41;3.25;;;1.30;;
31734;SDS011;18313;48.518;9.124;2022-07-06T10:50:09;3.35;;;1.45;;
31734;SDS011;18313;48.518;9.124;2022-07-06T10:55:29;2.92;;;1.70;;
31734;SDS011;18313;48.518;9.124;2022-07-06T10:57:57;5.22;;;1.70;;
31734;SDS011;18313;48.518;9.124;2022-07-06T11:00:25;4.43;;;1.40;;
31734;SDS011;18313;48.518;9.124;2022-07-06T11:02:52;3.35;;;1.38;;
31734;SDS011;18313;48.518;9.124;2022-07-06T11:14:05;3.50;;;1.50;;
31734;SDS011;18313;48.518;9.124;2022-07-06T11:16:37;3.30;;;1.30;;
31734;SDS011;18313;48.518;9.124;2022-07-06T11:24:28;3.92;;;1.40;;
31734;SDS011;18313;48.518;9.124;2022-07-06T11:26:56;3.67;;;1.40;;
31734;SDS011;18313;48.518;9.124;2022-07-06T11:29:25;2.45;;;1.40;;
31734;SDS011;18313;48.518;9.124;2022-07-06T11:31:57;2.05;;;1.35;;
31734;SDS011;18313;48.518;9.124;2022-07-06T11:34:27;3.03;;;1.65;;
31734;SDS011;18313;48.518;9.124;2022-07-06T11:36:56;4.03;;;1.50;;
31734;SDS011;18313;48.518;9.124;2022-07-06T11:39:34;7.65;;;2.38;;
31734;SDS011;18313;48.518;9.124;2022-07-06T11:42:07;3.70;;;1.58;;
31734;SDS011;18313;48.518;9.124;2022-07-06T11:44:39;4.75;;;1.70;;
31734;SDS011;18313;48.518;9.124;2022-07-06T11:47:07;4.95;;;1.52;;
31734;SDS011;18313;48.518;9.124;2022-07-06T11:49:36;4.07;;;1.40;;
31734;SDS011;18313;48.518;9.124;2022-07-06T11:52:07;6.00;;;1.95;;
31734;SDS011;18313;48.518;9.124;2022-07-06T11:57:09;5.43;;;1.80;;
31734;SDS011;18313;48.518;9.124;2022-07-06T11:59:38;3.97;;;1.63;;
31734;SDS011;18313;48.518;9.124;2022-07-06T12:02:08;4.75;;;1.52;;
31734;SDS011;18313;48.518;9.124;2022-07-06T12:04:38;3.33;;;1.70;;
31734;SDS011;18313;48.518;9.124;2022-07-06T12:07:11;3.88;;;1.90;;
31734;SDS011;18313;48.518;9.124;2022-07-06T12:09:40;7.75;;;1.65;;
31734;SDS011;18313;48.518;9.124;2022-07-06T12:12:09;3.25;;;1.40;;
31734;SDS011;18313;48.518;9.124;2022-07-06T12:14:38;3.95;;;1.52;;
31734;SDS011;18313;48.518;9.124;2022-07-06T12:17:07;3.28;;;1.52;;
31734;SDS011;18313;48.518;9.124;2022-07-06T12:19:36;4.75;;;1.83;;
31734;SDS011;18313;48.518;9.124;2022-07-06T12:22:04;4.55;;;1.52;;
31734;SDS011;18313;48.518;9.124;2022-07-06T12:24:32;6.47;;;1.60;;
31734;SDS011;18313;48.518;9.124;2022-07-06T12:27:10;9.25;;;2.08;;
31734;SDS011;18313;48.518;9.124;2022-07-06T12:29:39;5.28;;;1.88;;
31734;SDS011;18313;48.518;9.124;2022-07-06T12:32:06;7.53;;;1.80;;
31734;SDS011;18313;48.518;9.124;2022-07-06T12:34:33;5.72;;;1.95;;
31734;SDS011;18313;48.518;9.124;2022-07-06T12:37:08;4.75;;;1.90;;
31734;SDS011;18313;48.518;9.124;2022-07-06T12:39:45;3.60;;;1.70;;
31734;SDS011;18313;48.518;9.124;2022-07-06T12:42:14;5.82;;;1.77;;
31734;SDS011;18313;48.518;9.124;2022-07-06T12:44:52;5.53;;;1.65;;
31734;SDS011;18313;48.518;9.124;2022-07-06T12:47:20;6.22;;;2.20;;
31734;SDS011;18313;48.518;9.124;2022-07-06T12:50:08;5.45;;;1.98;;
31734;SDS011;18313;48.518;9.124;2022-07-06T12:52:38;6.07;;;1.80;;
31734;SDS011;18313;48.518;9.124;2022-07-06T12:55:06;4.05;;;1.88;;
31734;SDS011;18313;48.518;9.124;2022-07-06T13:00:12;4.20;;;1.90;;
31734;SDS011;18313;48.518;9.124;2022-07-06T13:02:43;5.57;;;1.67;;
31734;SDS011;18313;48.518;9.124;2022-07-06T13:05:31;4.70;;;2.05;;
31734;SDS011;18313;48.518;9.124;2022-07-06T13:07:58;5.40;;;1.75;;
31734;SDS011;18313;48.518;9.124;2022-07-06T13:10:26;7.88;;;1.90;;
31734;SDS011;18313;48.518;9.124;2022-07-06T13:12:53;7.60;;;1.98;;
31734;SDS011;18313;48.518;9.124;2022-07-06T13:15:20;7.43;;;1.80;;
31734;SDS011;18313;48.518;9.124;2022-07-06T13:17:47;4.47;;;1.73;;
31734;SDS011;18313;48.518;9.124;2022-07-06T13:20:14;6.55;;;1.90;;
31734;SDS011;18313;48.518;9.124;2022-07-06T13:22:43;4.68;;;2.00;;
31734;SDS011;18313;48.518;9.124;2022-07-06T13:25:10;3.25;;;1.70;;
31734;SDS011;18313;48.518;9.124;2022-07-06T13:27:39;6.47;;;2.05;;
31734;SDS011;18313;48.518;9.124;2022-07-06T13:30:06;4.30;;;1.80;;
31734;SDS011;18313;48.518;9.124;2022-07-06T13:32:34;4.57;;;1.67;;
31734;SDS011;18313;48.518;9.124;2022-07-06T13:35:01;8.48;;;1.90;;
31734;SDS011;18313;48.518;9.124;2022-07-06T13:37:28;4.18;;;1.90;;
31734;SDS011;18313;48.518;9.124;2022-07-06T13:39:56;9.13;;;2.17;;
31734;SDS011;18313;48.518;9.124;2022-07-06T13:42:24;5.15;;;2.17;;
31734;SDS011;18313;48.518;9.124;2022-07-06T13:44:51;6.75;;;2.05;;
31734;SDS011;18313;48.518;9.124;2022-07-06T13:47:18;6.40;;;1.90;;
31734;SDS011;18313;48.518;9.124;2022-07-06T13:49:45;5.72;;;2.17;;
31734;SDS011;18313;48.518;9.124;2022-07-06T13:52:14;5.43;;;1.73;;
31734;SDS011;18313;48.518;9.124;2022-07-06T13:54:41;8.40;;;2.22;;
31734;SDS011;18313;48.518;9.124;2022-07-06T13:57:08;5.93;;;1.92;;
31734;SDS011;18313;48.518;9.124;2022-07-06T13:59:36;8.02;;;2.10;;
31734;SDS011;18313;48.518;9.124;2022-07-06T14:02:03;5.10;;;1.70;;
31734;SDS011;18313;48.518;9.124;2022-07-06T14:04:30;5.28;;;1.70;;
31734;SDS011;18313;48.518;9.124;2022-07-06T14:06:58;4.03;;;1.52;;
31734;SDS011;18313;48.518;9.124;2022-07-06T14:09:25;6.22;;;2.25;;
31734;SDS011;18313;48.518;9.124;2022-07-06T14:11:52;6.00;;;1.65;;
31734;SDS011;18313;48.518;9.124;2022-07-06T14:14:19;6.13;;;2.30;;
31734;SDS011;18313;48.518;9.124;2022-07-06T14:16:46;5.13;;;1.63;;
31734;SDS011;18313;48.518;9.124;2022-07-06T14:19:13;5.20;;;1.90;;
31734;SDS011;18313;48.518;9.124;2022-07-06T14:21:46;4.85;;;1.98;;
31734;SDS011;18313;48.518;9.124;2022-07-06T14:24:13;5.13;;;1.90;;
31734;SDS011;18313;48.518;9.124;2022-07-06T14:26:41;4.53;;;2.00;;
31734;SDS011;18313;48.518;9.124;2022-07-06T14:29:08;5.78;;;1.70;;
31734;SDS011;18313;48.518;9.124;2022-07-06T14:31:36;5.15;;;1.77;;
31734;SDS011;18313;48.518;9.124;2022-07-06T14:34:03;6.40;;;1.63;;
31734;SDS011;18313;48.518;9.124;2022-07-06T14:36:31;5.88;;;2.00;;
31734;SDS011;18313;48.518;9.124;2022-07-06T14:38:59;5.50;;;1.90;;
31734;SDS011;18313;48.518;9.124;2022-07-06T14:41:26;4.28;;;1.70;;
31734;SDS011;18313;48.518;9.124;2022-07-06T14:43:53;4.32;;;1.80;;
31734;SDS011;18313;48.518;9.124;2022-07-06T14:46:20;6.20;;;1.80;;
31734;SDS011;18313;48.518;9.124;2022-07-06T14:48:48;3.70;;;1.52;;
31734;SDS011;18313;48.518;9.124;2022-07-06T14:51:15;6.03;;;2.25;;
31734;SDS011;18313;48.518;9.124;2022-07-06T14:53:41;3.70;;;1.73;;
31734;SDS011;18313;48.518;9.124;2022-07-06T14:56:08;2.38;;;1.30;;
31734;SDS011;18313;48.518;9.124;2022-07-06T14:58:35;3.60;;;1.40;;
31734;SDS011;18313;48.518;9.124;2022-07-06T15:01:06;3.17;;;1.40;;
31734;SDS011;18313;48.518;9.124;2022-07-06T15:03:33;4.78;;;1.50;;
31734;SDS011;18313;48.518;9.124;2022-07-06T15:06:00;4.18;;;1.52;;
31734;SDS011;18313;48.518;9.124;2022-07-06T15:08:27;5.35;;;1.73;;
31734;SDS011;18313;48.518;9.124;2022-07-06T15:10:54;2.65;;;1.27;;
31734;SDS011;18313;48.518;9.124;2022-07-06T15:13:21;2.40;;;1.40;;
31734;SDS011;18313;48.518;9.124;2022-07-06T15:15:49;4.20;;;1.50;;
31734;SDS011;18313;48.518;9.124;2022-07-06T15:18:24;5.22;;;1.50;;
31734;SDS011;18313;48.518;9.124;2022-07-06T15:20:52;4.63;;;1.50;;